Hauptseite
Satellitenwetter 10-Tage PrognosenKlimaSeewetter Wirbelstürme Blitz FlughäfenFAQ Newsletter Über uns
Wetter : Europa Afrika Nordamerika Südamerika Asien Australien-Ozeanien Andere
Sprachen Kontakt

Newquay Cornwall, England

Newquay Cornwall Airport

Breite: 50-26N, Länge: 005-00W, Höhe: 119 m


METAR: EGHQ 312020Z 30022KT 9999 FEW018 BKN040 07/03 Q1025
TAF: EGHQ 311658Z 3118/3121 28022KT 9999 SCT025 TEMPO 3118/3121 29025G35KT

Zeit: 21:41 (20:41 UTC)

Beobachtung

Neuester Wetterbericht von vor 21 Minuten, um 20:20 UTC
Wind 22 kt aus West/Nordwest
Temperatur 7°C
Luftfeuchtigkeit 76%
Luftdruck 1025 hPa
Sichtweite 10 km oder mehr
Leicht bewölkt in der Höhe von 1800 ft
Durchbrochene Bewölkung in der Höhe von 4000 ft

Maßeinheiten ändern

Prognose

Neuester Wetterbericht von vor 3 Stunden und 43 Minuten, um 16:58 UTC
Gültige Prognose vom 31 um 18 UTC bis 31 um 21 UTC
Wind 22 kt aus West
Sichtweite 10 km oder mehr
Aufgelockert bewölkt in der Höhe von 2500 ft
Zeitweise
vom 31 um 18 UTC bis 31 um 21 UTC
Wind 25 kt aus West/Nordwest, Böen bis zu 35 kt
Die Angaben auf diesen Webseiten unterliegen einer Erklärung über den Haftungsausschluss
Wetter : Europa Afrika Nordamerika Südamerika Asien Australien-Ozeanien Andere
Satellitenwetter 10-Tage PrognosenKlimaSeewetter Wirbelstürme Blitz FlughäfenFAQ Sprachen Kontakt Newsletter Über uns